CROATAN NC US current weather conditions

sailwx.info

Wind from 269 at 3 knots gusting 12

Air temperature 23.9° C
Dewpoint 22.7° C

Last reported at 2020-Sep-18 09:05 UTC.
Time now 2020-Sep-18 10:45 UTC

Location: N 34°46' W 076°54'.
View on Google Maps.

See reports from other nearby stations

  
Tides and Currents Weather Stations Pressure Air Temp Water Temp Dewpoint Dewpoint Depression Visibility Wind Speed Wind Dir Waves Ship Positions
date/time (UTC)wind fromknots sea level pressurealtimeterstation pressurevisibilityair tempwater tempwave heightnotes
2020-Sep-18 09:05 269 3 gusting 12 23.9
2020-Sep-18 08:05 215 10 gusting 25 26.7
2020-Sep-18 07:05 206 9 gusting 25 25.6
2020-Sep-18 06:05 205 10 gusting 19 27.2
2020-Sep-18 05:05 192 8 gusting 16 27.2
2020-Sep-18 04:05 171 7 gusting 13 26.7
2020-Sep-18 03:05 159 6 gusting 11 26.1
2020-Sep-18 02:05 145 2 gusting 7 24.4
2020-Sep-18 01:05 331 6 gusting 13 23.9
2020-Sep-18 00:05 117 5 gusting 10 23.9
2020-Sep-17 23:05 085 4 gusting 6 23.3
2020-Sep-17 22:05 103 4 gusting 7 23.9
2020-Sep-17 21:05 101 2 gusting 7 23.9
2020-Sep-17 20:05 195 3 gusting 5 24.4
2020-Sep-17 19:05 149 2 gusting 6 25.6
2020-Sep-17 18:05 177 4 gusting 11 26.1
2020-Sep-17 17:05 178 4 gusting 13 24.4
2020-Sep-17 16:05 165 4 gusting 6 24.4
2020-Sep-17 15:05 113 5 gusting 8 25.0
2020-Sep-17 14:05 131 3 gusting 6 22.8
2020-Sep-17 13:05 062 4 gusting 6 22.2
2020-Sep-17 12:05 059 4 gusting 8 21.1
2020-Sep-17 11:05 090 6 gusting 8 21.7
2020-Sep-17 10:05 099 4 gusting 7 22.2
2020-Sep-17 09:05 115 2 gusting 4 22.2
2020-Sep-17 08:05 22.2
2020-Sep-17 07:05 139 1 gusting 8 23.3
2020-Sep-17 06:05 109 4 gusting 9 25.0
2020-Sep-17 05:05 110 4 gusting 11 25.0
2020-Sep-17 04:05 080 3 gusting 5 23.3
2020-Sep-17 03:05 076 3 gusting 6 22.8
2020-Sep-17 02:05 075 4 gusting 6 22.8
2020-Sep-17 01:05 074 3 gusting 6 23.3
2020-Sep-17 00:05 071 3 gusting 26 23.9
2020-Sep-16 23:05 105 5 gusting 11 25.0
2020-Sep-16 22:05 117 6 gusting 13 26.1
2020-Sep-16 21:05 133 7 gusting 15 26.7
2020-Sep-16 20:05 135 7 gusting 16 27.2
2020-Sep-16 19:05 128 7 gusting 15 28.3
2020-Sep-16 18:05 117 6 gusting 12 26.7
2020-Sep-16 17:05 128 7 gusting 15 27.8
2020-Sep-16 16:05 094 8 gusting 13 28.3
2020-Sep-16 15:05 077 7 gusting 12 26.1
2020-Sep-16 14:05 044 7 gusting 13 25.0
2020-Sep-16 13:05 030 6 gusting 9 23.9
2020-Sep-16 12:05 017 6 gusting 9 20.6
2020-Sep-16 11:05 017 5 gusting 8 19.4